Time;durP1;ratioP1;P1;durP2;ratioP2;P2;SDS_P1;SDS_P2;PMS_P1;PMS_P2;Temp;Humidity;BMP_temperature;BMP_pressure;BME280_temperature;BME280_humidity;BME280_pressure;Samples;Min_cycle;Max_cycle;Signal;HPM_P1;HPM_P2
2021/12/11 00:01:19;;;;;;;4.57;3.07;;;;;;;;;;5087684;28;20202;-64
2021/12/11 00:03:48;;;;;;;4.97;3.77;;;;;;;;;;5087569;28;20300;-65
2021/12/11 00:06:16;;;;;;;7.77;3.90;;;;;;;;;;5087752;28;20206;-64
2021/12/11 00:08:45;;;;;;;6.50;3.53;;;;;;;;;;5087983;28;20218;-64
2021/12/11 00:11:13;;;;;;;8.13;3.90;;;;;;;;;;5087389;28;20205;-64
2021/12/11 00:13:41;;;;;;;5.87;3.40;;;;;;;;;;5087344;28;20234;-64
2021/12/11 00:16:09;;;;;;;5.43;3.50;;;;;;;;;;5087528;28;20246;-64
2021/12/11 00:18:39;;;;;;;6.87;4.23;;;;;;;;;;5087856;28;20221;-64
2021/12/11 00:21:08;;;;;;;7.40;4.03;;;;;;;;;;5067354;28;20211;-64
2021/12/11 00:23:37;;;;;;;12.83;4.60;;;;;;;;;;5080178;28;20202;-65
2021/12/11 00:26:05;;;;;;;8.53;3.93;;;;;;;;;;5088713;28;20209;-64
2021/12/11 00:28:32;;;;;;;11.57;4.20;;;;;;;;;;5089790;28;20206;-65
2021/12/11 00:31:00;;;;;;;6.43;4.23;;;;;;;;;;5089705;28;20234;-65
2021/12/11 00:33:28;;;;;;;8.27;4.67;;;;;;;;;;5090386;28;20230;-64
2021/12/11 00:35:57;;;;;;;6.27;3.53;;;;;;;;;;5091062;28;20263;-64
2021/12/11 00:38:32;;;;;;;6.07;3.77;;;;;;;;;;5091537;28;20868;-64
2021/12/11 00:41:00;;;;;;;7.53;3.97;;;;;;;;;;5091308;28;20583;-65
2021/12/11 00:43:30;;;;;;;7.13;3.50;;;;;;;;;;5082772;28;20222;-64
2021/12/11 00:45:58;;;;;;;5.63;3.63;;;;;;;;;;5086131;28;20206;-64
2021/12/11 00:48:26;;;;;;;5.83;4.30;;;;;;;;;;5079939;28;20253;-64
2021/12/11 00:50:54;;;;;;;11.40;4.63;;;;;;;;;;5083398;28;20195;-65
2021/12/11 00:53:24;;;;;;;10.03;3.73;;;;;;;;;;5078092;28;20218;-64
2021/12/11 00:55:54;;;;;;;11.20;5.03;;;;;;;;;;5080032;28;20242;-64
2021/12/11 00:58:22;;;;;;;6.27;4.20;;;;;;;;;;5081604;28;20205;-64
2021/12/11 01:00:52;;;;;;;9.70;4.43;;;;;;;;;;5077947;28;20210;-64
2021/12/11 01:03:21;;;;;;;7.90;4.10;;;;;;;;;;5081047;28;20207;-64
2021/12/11 01:05:49;;;;;;;6.97;3.83;;;;;;;;;;5080651;28;20256;-64
2021/12/11 01:08:19;;;;;;;8.17;4.53;;;;;;;;;;5081007;28;20724;-64
2021/12/11 01:10:48;;;;;;;6.60;4.03;;;;;;;;;;5078056;28;20202;-64
2021/12/11 01:13:18;;;;;;;9.17;5.13;;;;;;;;;;5081255;28;20214;-64
2021/12/11 01:15:47;;;;;;;5.27;3.70;;;;;;;;;;5078275;28;20624;-64
2021/12/11 01:18:23;;;;;;;5.40;4.00;;;;;;;;;;5081288;28;20207;-64
2021/12/11 01:20:56;;;;;;;5.50;3.40;;;;;;;;;;5079155;28;20225;-64
2021/12/11 01:23:34;;;;;;;8.03;4.47;;;;;;;;;;5082261;28;20263;-64
2021/12/11 01:26:04;;;;;;;11.60;3.97;;;;;;;;;;5078171;28;20206;-64
2021/12/11 01:28:32;;;;;;;6.17;3.60;;;;;;;;;;5078484;28;20210;-64
2021/12/11 01:30:59;;;;;;;11.63;4.23;;;;;;;;;;5078403;28;20662;-64
2021/12/11 01:33:26;;;;;;;7.90;3.47;;;;;;;;;;5081467;28;20226;-64
2021/12/11 01:35:54;;;;;;;6.00;4.00;;;;;;;;;;5072093;28;20203;-64
2021/12/11 01:38:22;;;;;;;10.97;4.07;;;;;;;;;;5080383;28;20228;-64
2021/12/11 01:40:51;;;;;;;9.73;4.73;;;;;;;;;;5089429;28;20267;-64
2021/12/11 01:43:22;;;;;;;8.00;4.47;;;;;;;;;;5089646;28;20198;-65
2021/12/11 01:45:50;;;;;;;5.13;3.63;;;;;;;;;;5089604;28;20198;-64
2021/12/11 01:48:18;;;;;;;6.80;3.50;;;;;;;;;;5090071;28;20226;-65
2021/12/11 01:50:47;;;;;;;4.47;3.17;;;;;;;;;;5090058;28;20237;-65
2021/12/11 01:53:16;;;;;;;4.03;2.87;;;;;;;;;;5090048;28;20276;-64
2021/12/11 01:55:45;;;;;;;6.57;4.27;;;;;;;;;;5090081;28;20213;-65
2021/12/11 01:58:14;;;;;;;5.67;4.03;;;;;;;;;;5090192;28;20221;-65
2021/12/11 02:00:44;;;;;;;5.43;3.80;;;;;;;;;;5090105;28;20202;-64
2021/12/11 02:03:12;;;;;;;4.80;3.37;;;;;;;;;;5089639;28;20214;-66
2021/12/11 02:05:41;;;;;;;4.67;3.57;;;;;;;;;;5089617;28;20190;-64
2021/12/11 02:08:10;;;;;;;8.23;3.70;;;;;;;;;;5089853;28;20198;-65
2021/12/11 02:10:39;;;;;;;4.73;3.73;;;;;;;;;;5089694;28;20206;-65
2021/12/11 02:13:07;;;;;;;5.40;3.33;;;;;;;;;;5089166;28;20233;-65
2021/12/11 02:15:38;;;;;;;9.27;4.23;;;;;;;;;;5089592;28;20237;-64
2021/12/11 02:18:10;;;;;;;4.70;3.10;;;;;;;;;;5089325;28;20202;-64
2021/12/11 02:20:41;;;;;;;7.50;4.20;;;;;;;;;;5089522;28;20209;-65
2021/12/11 02:23:09;;;;;;;6.90;3.67;;;;;;;;;;5089587;28;20334;-65
2021/12/11 02:25:39;;;;;;;4.53;3.40;;;;;;;;;;5089887;28;20593;-65
2021/12/11 02:28:08;;;;;;;4.03;3.10;;;;;;;;;;5089805;28;20207;-65
2021/12/11 02:30:38;;;;;;;4.70;3.40;;;;;;;;;;5089726;28;20238;-65
2021/12/11 02:33:07;;;;;;;5.83;3.77;;;;;;;;;;5088913;28;20228;-64
2021/12/11 02:35:38;;;;;;;10.97;5.07;;;;;;;;;;5089305;28;20222;-65
2021/12/11 02:38:09;;;;;;;6.87;3.97;;;;;;;;;;5087016;28;20299;-65
2021/12/11 02:40:40;;;;;;;6.87;3.97;;;;;;;;;;5096473;28;20584;-64
2021/12/11 02:43:14;;;;;;;7.67;3.77;;;;;;;;;;5092395;28;20784;-65
2021/12/11 02:45:44;;;;;;;6.43;3.90;;;;;;;;;;5096110;28;20202;-65
2021/12/11 02:48:16;;;;;;;9.03;4.27;;;;;;;;;;5095923;28;20677;-65
2021/12/11 02:50:45;;;;;;;6.60;3.97;;;;;;;;;;5096134;28;20794;-65
2021/12/11 02:53:14;;;;;;;6.27;3.90;;;;;;;;;;5096206;28;20206;-65
2021/12/11 02:55:45;;;;;;;5.50;4.30;;;;;;;;;;5096095;28;20226;-63
2021/12/11 02:58:14;;;;;;;5.10;4.13;;;;;;;;;;5095910;28;20217;-65
2021/12/11 03:00:43;;;;;;;8.07;3.33;;;;;;;;;;5095476;28;20883;-65
2021/12/11 03:03:12;;;;;;;7.73;4.53;;;;;;;;;;5095706;28;20699;-65
2021/12/11 03:05:45;;;;;;;10.03;3.80;;;;;;;;;;5078388;28;20199;-68
2021/12/11 03:08:13;;;;;;;5.73;4.20;;;;;;;;;;5078998;28;20309;-65
2021/12/11 03:10:42;;;;;;;6.77;3.33;;;;;;;;;;5095824;28;20584;-65
2021/12/11 03:13:10;;;;;;;6.60;4.47;;;;;;;;;;5095864;28;20202;-65
2021/12/11 03:15:37;;;;;;;7.07;3.93;;;;;;;;;;5095652;28;20257;-65
2021/12/11 03:18:06;;;;;;;4.20;3.53;;;;;;;;;;5095955;28;20206;-64
2021/12/11 03:20:35;;;;;;;6.20;4.13;;;;;;;;;;5095951;28;20207;-64
2021/12/11 03:23:02;;;;;;;6.50;4.00;;;;;;;;;;5095751;28;20581;-65
2021/12/11 03:25:30;;;;;;;4.67;4.03;;;;;;;;;;5095871;28;20201;-65
2021/12/11 03:27:58;;;;;;;7.87;4.00;;;;;;;;;;5095800;28;20212;-65
2021/12/11 03:30:28;;;;;;;5.30;3.50;;;;;;;;;;5095574;28;20245;-64
2021/12/11 03:32:56;;;;;;;6.80;3.77;;;;;;;;;;5095210;28;20226;-65
2021/12/11 03:35:24;;;;;;;5.07;4.17;;;;;;;;;;5095860;28;20255;-65
2021/12/11 03:37:51;;;;;;;4.77;3.83;;;;;;;;;;5095448;28;20291;-65
2021/12/11 03:40:19;;;;;;;7.17;3.97;;;;;;;;;;5095745;28;20687;-65
2021/12/11 03:42:46;;;;;;;5.23;3.60;;;;;;;;;;5095570;28;20209;-65
2021/12/11 03:45:15;;;;;;;4.67;3.73;;;;;;;;;;5095939;28;20206;-65
2021/12/11 03:47:45;;;;;;;5.13;3.77;;;;;;;;;;5094288;28;20214;-65
2021/12/11 03:50:16;;;;;;;3.87;3.47;;;;;;;;;;5092536;28;20235;-64
2021/12/11 03:52:45;;;;;;;6.63;4.23;;;;;;;;;;5092214;28;20298;-65
2021/12/11 03:55:13;;;;;;;4.03;3.17;;;;;;;;;;5092571;28;20230;-65
2021/12/11 03:57:41;;;;;;;6.00;3.33;;;;;;;;;;5091797;28;20260;-65
2021/12/11 04:00:11;;;;;;;3.67;3.37;;;;;;;;;;5092474;28;20230;-65
2021/12/11 04:02:39;;;;;;;5.60;3.30;;;;;;;;;;5092063;28;20233;-65
2021/12/11 04:05:08;;;;;;;7.63;3.87;;;;;;;;;;5092080;28;20206;-65
2021/12/11 04:07:37;;;;;;;8.83;3.87;;;;;;;;;;5092087;28;20206;-65
2021/12/11 04:10:06;;;;;;;3.97;2.57;;;;;;;;;;5092140;28;20233;-65
2021/12/11 04:12:33;;;;;;;4.93;3.77;;;;;;;;;;5091617;28;20207;-64
2021/12/11 04:15:00;;;;;;;5.20;3.27;;;;;;;;;;5092297;28;20234;-64
2021/12/11 04:17:28;;;;;;;4.93;3.30;;;;;;;;;;5091715;28;20194;-65
2021/12/11 04:19:56;;;;;;;3.90;3.50;;;;;;;;;;5092041;28;20684;-64
2021/12/11 04:22:25;;;;;;;6.23;3.67;;;;;;;;;;5091746;28;20209;-64
2021/12/11 04:24:52;;;;;;;4.07;3.67;;;;;;;;;;5091678;28;20264;-64
2021/12/11 04:27:20;;;;;;;3.87;3.10;;;;;;;;;;5091825;28;20206;-65
2021/12/11 04:29:50;;;;;;;6.57;3.17;;;;;;;;;;5091708;28;20243;-64
2021/12/11 04:32:18;;;;;;;7.30;3.50;;;;;;;;;;5090943;28;20213;-64
2021/12/11 04:34:45;;;;;;;3.80;2.83;;;;;;;;;;5091651;28;20222;-64
2021/12/11 04:37:16;;;;;;;7.17;3.87;;;;;;;;;;5091522;28;20215;-65
2021/12/11 04:39:48;;;;;;;4.47;4.03;;;;;;;;;;5091506;28;20206;-65
2021/12/11 04:42:25;;;;;;;3.97;3.40;;;;;;;;;;5091684;28;20214;-64
2021/12/11 04:44:52;;;;;;;7.47;4.10;;;;;;;;;;5090528;28;20198;-64
2021/12/11 04:47:31;;;;;;;5.37;3.97;;;;;;;;;;5090715;28;20225;-65
2021/12/11 04:50:03;;;;;;;7.23;4.63;;;;;;;;;;5090782;28;20213;-64
2021/12/11 04:52:39;;;;;;;6.00;4.60;;;;;;;;;;5090545;28;20641;-65
2021/12/11 04:55:21;;;;;;;8.20;4.93;;;;;;;;;;5090284;28;20233;-64
2021/12/11 05:00:33;;;;;;;5.50;4.47;;;;;;;;;;5089198;28;20282;-64
2021/12/11 05:03:26;;;;;;;7.23;4.60;;;;;;;;;;5090455;28;20208;-64
2021/12/11 05:06:13;;;;;;;5.77;4.23;;;;;;;;;;5089205;28;20657;-65
2021/12/11 05:11:35;;;;;;;6.53;4.60;;;;;;;;;;5090181;28;20846;-64
2021/12/11 05:14:02;;;;;;;6.03;4.37;;;;;;;;;;5090359;28;20210;-64
2021/12/11 05:16:29;;;;;;;8.50;5.33;;;;;;;;;;5090406;28;20781;-64
2021/12/11 05:18:56;;;;;;;6.33;4.27;;;;;;;;;;5089904;28;20210;-65
2021/12/11 05:21:24;;;;;;;6.83;3.87;;;;;;;;;;5089494;28;20229;-64
2021/12/11 05:23:52;;;;;;;8.07;4.83;;;;;;;;;;5089983;28;20214;-64
2021/12/11 05:26:19;;;;;;;7.90;4.83;;;;;;;;;;5089710;28;20684;-64
2021/12/11 05:28:50;;;;;;;7.50;4.70;;;;;;;;;;5090105;28;20660;-64
2021/12/11 05:31:17;;;;;;;9.97;4.77;;;;;;;;;;5089935;28;20767;-64
2021/12/11 05:33:45;;;;;;;9.77;5.23;;;;;;;;;;5089728;28;20225;-65
2021/12/11 05:36:13;;;;;;;7.90;4.50;;;;;;;;;;5089753;28;20253;-64
2021/12/11 05:38:41;;;;;;;4.70;4.03;;;;;;;;;;5089628;28;20211;-65
2021/12/11 05:41:10;;;;;;;5.63;3.87;;;;;;;;;;5089284;28;20465;-64
2021/12/11 05:43:37;;;;;;;5.87;4.10;;;;;;;;;;5089318;28;20586;-65
2021/12/11 05:46:06;;;;;;;9.17;4.30;;;;;;;;;;5089767;28;20210;-65
2021/12/11 05:48:34;;;;;;;9.37;4.53;;;;;;;;;;5089346;28;20207;-64
2021/12/11 05:51:02;;;;;;;6.17;4.00;;;;;;;;;;5089271;28;20252;-65
2021/12/11 05:53:31;;;;;;;7.40;4.07;;;;;;;;;;5087796;28;20215;-64
2021/12/11 05:55:58;;;;;;;4.70;3.07;;;;;;;;;;5089414;28;20311;-65
2021/12/11 05:58:46;;;;;;;4.80;4.13;;;;;;;;;;5089417;28;20322;-64
2021/12/11 06:01:15;;;;;;;5.47;3.50;;;;;;;;;;5089091;28;20562;-64
2021/12/11 06:03:42;;;;;;;4.90;3.40;;;;;;;;;;5089132;28;20286;-65
2021/12/11 06:06:09;;;;;;;3.43;3.13;;;;;;;;;;5089057;28;20229;-65
2021/12/11 06:08:37;;;;;;;6.63;4.00;;;;;;;;;;5089376;28;20229;-65
2021/12/11 06:11:05;;;;;;;4.27;3.63;;;;;;;;;;5088545;28;20210;-65
2021/12/11 06:13:32;;;;;;;6.80;3.97;;;;;;;;;;5089409;28;20211;-65
2021/12/11 06:16:01;;;;;;;8.07;4.77;;;;;;;;;;5088657;28;20275;-65
2021/12/11 06:18:29;;;;;;;6.97;4.70;;;;;;;;;;5089019;28;20207;-64
2021/12/11 06:20:56;;;;;;;9.33;4.70;;;;;;;;;;5088674;28;20198;-65
2021/12/11 06:23:23;;;;;;;10.57;5.00;;;;;;;;;;5089032;28;20214;-65
2021/12/11 06:25:51;;;;;;;6.83;4.70;;;;;;;;;;5088865;28;20625;-65
2021/12/11 06:28:18;;;;;;;5.63;3.90;;;;;;;;;;5089281;28;20261;-65
2021/12/11 06:30:45;;;;;;;10.60;5.13;;;;;;;;;;5088356;28;20278;-65
2021/12/11 06:33:13;;;;;;;11.27;5.37;;;;;;;;;;5088859;28;20235;-65
2021/12/11 06:35:43;;;;;;;8.70;6.17;;;;;;;;;;5088600;28;20615;-65
2021/12/11 06:38:12;;;;;;;5.30;4.43;;;;;;;;;;5088766;28;20864;-64
2021/12/11 06:40:39;;;;;;;8.03;4.57;;;;;;;;;;5088556;28;20225;-64
2021/12/11 06:43:06;;;;;;;6.67;5.17;;;;;;;;;;5088894;28;20252;-64
2021/12/11 06:45:37;;;;;;;6.90;5.30;;;;;;;;;;5087314;28;20199;-64
2021/12/11 06:48:04;;;;;;;9.30;5.23;;;;;;;;;;5087478;28;20206;-64
2021/12/11 06:50:31;;;;;;;9.17;5.33;;;;;;;;;;5088790;28;20207;-65
2021/12/11 06:53:01;;;;;;;7.20;4.50;;;;;;;;;;5088337;28;20210;-64
2021/12/11 06:55:28;;;;;;;6.67;4.67;;;;;;;;;;5088380;28;20233;-65
2021/12/11 06:57:55;;;;;;;5.80;3.93;;;;;;;;;;5088827;28;20214;-66
2021/12/11 07:00:22;;;;;;;6.83;3.87;;;;;;;;;;5088594;28;20214;-65
2021/12/11 07:02:49;;;;;;;6.07;3.70;;;;;;;;;;5087974;28;20206;-65
2021/12/11 07:05:16;;;;;;;3.93;3.50;;;;;;;;;;5088729;28;20205;-64
2021/12/11 07:07:44;;;;;;;8.97;4.53;;;;;;;;;;5088813;28;20218;-65
2021/12/11 07:10:14;;;;;;;6.97;4.30;;;;;;;;;;5088517;28;20228;-64
2021/12/11 07:12:42;;;;;;;5.77;3.97;;;;;;;;;;5088293;28;20698;-64
2021/12/11 07:15:10;;;;;;;6.77;4.17;;;;;;;;;;5088295;28;20259;-65
2021/12/11 07:17:38;;;;;;;4.70;3.63;;;;;;;;;;5088199;28;20304;-65
2021/12/11 07:20:06;;;;;;;5.20;4.40;;;;;;;;;;5088920;28;20210;-65
2021/12/11 07:22:33;;;;;;;5.67;3.27;;;;;;;;;;5088307;28;20207;-64
2021/12/11 07:25:05;;;;;;;6.07;3.43;;;;;;;;;;5091963;28;20209;-65
2021/12/11 07:27:34;;;;;;;5.33;4.27;;;;;;;;;;5089153;28;20198;-67
2021/12/11 07:30:01;;;;;;;6.40;3.83;;;;;;;;;;5091976;28;20329;-65
2021/12/11 07:32:28;;;;;;;5.33;3.67;;;;;;;;;;5092341;28;20638;-65
2021/12/11 07:34:56;;;;;;;8.83;3.77;;;;;;;;;;5092278;28;20221;-66
2021/12/11 07:37:24;;;;;;;6.50;4.03;;;;;;;;;;5091802;28;20230;-65
2021/12/11 07:39:51;;;;;;;7.97;4.40;;;;;;;;;;5092625;28;20228;-65
2021/12/11 07:42:18;;;;;;;6.13;3.87;;;;;;;;;;5092203;28;20584;-65
2021/12/11 07:44:46;;;;;;;7.20;4.13;;;;;;;;;;5092535;28;20216;-65
2021/12/11 07:47:13;;;;;;;11.17;5.03;;;;;;;;;;5091704;28;20195;-65
2021/12/11 07:49:40;;;;;;;7.00;3.37;;;;;;;;;;5092201;28;20230;-65
2021/12/11 07:52:08;;;;;;;7.43;4.80;;;;;;;;;;5091650;28;20198;-65
2021/12/11 07:54:35;;;;;;;4.43;3.77;;;;;;;;;;5091970;28;20225;-65
2021/12/11 07:57:02;;;;;;;5.13;3.90;;;;;;;;;;5089833;28;20694;-65
2021/12/11 07:59:29;;;;;;;9.73;4.20;;;;;;;;;;5092266;28;20206;-65
2021/12/11 08:01:57;;;;;;;6.07;3.37;;;;;;;;;;5091735;28;20672;-65
2021/12/11 08:04:25;;;;;;;7.03;3.73;;;;;;;;;;5090086;28;20215;-65
2021/12/11 08:06:52;;;;;;;5.40;3.70;;;;;;;;;;5091519;28;20435;-65
2021/12/11 08:09:20;;;;;;;5.60;4.30;;;;;;;;;;5091675;28;20807;-66
2021/12/11 08:11:47;;;;;;;6.93;3.77;;;;;;;;;;5091676;28;20213;-66
2021/12/11 08:14:15;;;;;;;3.63;3.17;;;;;;;;;;5090900;28;20689;-66
2021/12/11 08:16:47;;;;;;;4.67;4.03;;;;;;;;;;5089509;28;20226;-67
2021/12/11 08:19:16;;;;;;;5.47;3.70;;;;;;;;;;5091142;28;20204;-66
2021/12/11 08:21:43;;;;;;;7.93;4.93;;;;;;;;;;5087585;28;20290;-66
2021/12/11 08:24:11;;;;;;;6.70;4.33;;;;;;;;;;5087277;28;20221;-66
2021/12/11 08:26:40;;;;;;;6.00;3.63;;;;;;;;;;5090989;28;20217;-66
2021/12/11 08:29:08;;;;;;;7.83;4.60;;;;;;;;;;5090540;28;20213;-67
2021/12/11 08:31:35;;;;;;;9.93;4.90;;;;;;;;;;5089991;28;20212;-65
2021/12/11 08:34:02;;;;;;;6.40;4.03;;;;;;;;;;5090047;28;20222;-64
2021/12/11 08:36:30;;;;;;;6.93;4.57;;;;;;;;;;5091003;28;20722;-65
2021/12/11 08:38:59;;;;;;;9.67;5.13;;;;;;;;;;5091175;28;20209;-64
2021/12/11 08:41:27;;;;;;;7.50;3.70;;;;;;;;;;5090210;28;20210;-64
2021/12/11 08:43:59;;;;;;;8.00;4.70;;;;;;;;;;5090582;28;20202;-64
2021/12/11 08:46:28;;;;;;;7.60;4.30;;;;;;;;;;5090515;28;20205;-66
2021/12/11 08:48:56;;;;;;;7.00;4.50;;;;;;;;;;5088194;28;20216;-64
2021/12/11 08:51:25;;;;;;;9.60;5.30;;;;;;;;;;5088526;28;20274;-64
2021/12/11 08:53:53;;;;;;;8.97;5.03;;;;;;;;;;5090385;28;20205;-64
2021/12/11 08:56:21;;;;;;;8.60;4.50;;;;;;;;;;5081593;28;20260;-65
2021/12/11 08:58:49;;;;;;;11.00;4.60;;;;;;;;;;5090150;28;20205;-64
2021/12/11 09:01:18;;;;;;;13.33;6.70;;;;;;;;;;5085786;28;20220;-65
2021/12/11 09:03:48;;;;;;;5.70;4.53;;;;;;;;;;5080806;28;20224;-64
2021/12/11 09:06:17;;;;;;;9.07;5.17;;;;;;;;;;5085861;28;20251;-64
2021/12/11 09:08:45;;;;;;;11.37;6.00;;;;;;;;;;5081706;28;20197;-64
2021/12/11 09:11:17;;;;;;;7.77;5.20;;;;;;;;;;5085058;28;20202;-65
2021/12/11 09:13:46;;;;;;;9.73;5.53;;;;;;;;;;5081596;28;20206;-64
2021/12/11 09:16:15;;;;;;;10.97;5.83;;;;;;;;;;5083020;28;20229;-67
2021/12/11 09:18:45;;;;;;;10.57;5.60;;;;;;;;;;5081792;28;20692;-65
2021/12/11 09:21:15;;;;;;;13.33;6.37;;;;;;;;;;5080961;28;20208;-63
2021/12/11 09:23:44;;;;;;;25.87;6.70;;;;;;;;;;5084662;28;20202;-65
2021/12/11 09:26:16;;;;;;;15.10;6.67;;;;;;;;;;5082028;28;20199;-64
2021/12/11 09:28:45;;;;;;;14.23;6.40;;;;;;;;;;5084670;28;20199;-64
2021/12/11 09:31:14;;;;;;;14.07;6.70;;;;;;;;;;5080591;28;20678;-63
2021/12/11 09:33:45;;;;;;;11.37;6.27;;;;;;;;;;5086734;28;20234;-63
2021/12/11 09:36:16;;;;;;;14.60;7.23;;;;;;;;;;5077221;28;20227;-64
2021/12/11 09:38:48;;;;;;;19.10;7.23;;;;;;;;;;5085983;28;20202;-65
2021/12/11 09:41:21;;;;;;;14.93;6.43;;;;;;;;;;5079701;28;20298;-65
2021/12/11 09:43:51;;;;;;;15.97;6.53;;;;;;;;;;5077542;28;20238;-66
2021/12/11 09:46:19;;;;;;;9.53;5.20;;;;;;;;;;5081057;28;20661;-63
2021/12/11 09:48:48;;;;;;;16.13;6.70;;;;;;;;;;5079392;28;20208;-64
2021/12/11 09:51:19;;;;;;;9.97;6.27;;;;;;;;;;5080513;28;20221;-64
2021/12/11 09:53:49;;;;;;;11.60;6.80;;;;;;;;;;5077572;28;20572;-64
2021/12/11 09:56:17;;;;;;;10.10;6.13;;;;;;;;;;5081378;28;20308;-65
2021/12/11 09:58:45;;;;;;;9.20;5.47;;;;;;;;;;5079528;28;20210;-66
2021/12/11 10:01:15;;;;;;;21.07;7.00;;;;;;;;;;5079881;28;20213;-69
2021/12/11 10:03:45;;;;;;;14.97;6.20;;;;;;;;;;5077660;28;20194;-64
2021/12/11 10:06:26;;;;;;;15.37;7.83;;;;;;;;;;5081630;28;20213;-62
2021/12/11 10:09:09;;;;;;;13.10;6.90;;;;;;;;;;5082643;28;20280;-65
2021/12/11 10:11:36;;;;;;;13.47;6.87;;;;;;;;;;5079682;28;20587;-65
2021/12/11 10:14:06;;;;;;;14.67;7.50;;;;;;;;;;5085343;28;20218;-67
2021/12/11 10:16:36;;;;;;;10.63;6.63;;;;;;;;;;5082009;28;20218;-66
2021/12/11 10:19:04;;;;;;;17.30;6.93;;;;;;;;;;5081468;28;20608;-65
2021/12/11 10:21:33;;;;;;;17.13;8.33;;;;;;;;;;5077386;28;20257;-67
2021/12/11 10:24:01;;;;;;;14.53;7.50;;;;;;;;;;5082282;28;20207;-64
2021/12/11 10:26:29;;;;;;;14.67;7.37;;;;;;;;;;5080293;28;20225;-64
2021/12/11 10:28:58;;;;;;;13.00;6.67;;;;;;;;;;5077934;28;20620;-65
2021/12/11 10:31:27;;;;;;;9.20;6.07;;;;;;;;;;5081106;28;20207;-65
2021/12/11 10:33:56;;;;;;;12.77;6.87;;;;;;;;;;5080226;28;20219;-65
2021/12/11 10:36:27;;;;;;;10.00;5.90;;;;;;;;;;5080020;28;20210;-65
2021/12/11 10:38:54;;;;;;;11.23;6.37;;;;;;;;;;5081195;28;20581;-66
2021/12/11 10:41:35;;;;;;;10.07;5.37;;;;;;;;;;5078952;28;20582;-65
2021/12/11 10:44:04;;;;;;;10.93;6.27;;;;;;;;;;5082031;28;20206;-66
2021/12/11 10:46:33;;;;;;;8.17;5.07;;;;;;;;;;5081839;28;20209;-66
2021/12/11 10:49:02;;;;;;;8.90;5.03;;;;;;;;;;5081305;28;20272;-68
2021/12/11 10:51:31;;;;;;;10.43;6.00;;;;;;;;;;5080066;28;20600;-65
2021/12/11 10:53:58;;;;;;;10.10;5.43;;;;;;;;;;5080101;28;20198;-65
2021/12/11 10:56:28;;;;;;;7.33;4.57;;;;;;;;;;5084556;28;20218;-66
2021/12/11 10:58:58;;;;;;;5.87;4.13;;;;;;;;;;5082459;28;20210;-66
2021/12/11 11:01:27;;;;;;;5.37;3.93;;;;;;;;;;5083089;28;20970;-70
2021/12/11 11:03:57;;;;;;;7.37;3.50;;;;;;;;;;5087982;28;20230;-65
2021/12/11 11:06:26;;;;;;;4.57;3.67;;;;;;;;;;5081737;28;20207;-66
2021/12/11 11:08:53;;;;;;;4.03;3.33;;;;;;;;;;5087713;28;20199;-68
2021/12/11 11:11:23;;;;;;;4.07;3.07;;;;;;;;;;5091939;28;20217;-67
2021/12/11 11:13:51;;;;;;;6.73;3.43;;;;;;;;;;5090260;28;20213;-65
2021/12/11 11:16:20;;;;;;;7.07;4.27;;;;;;;;;;5088317;28;20210;-76
2021/12/11 11:18:48;;;;;;;6.27;4.33;;;;;;;;;;5089082;28;20214;-66
2021/12/11 11:21:16;;;;;;;7.47;4.73;;;;;;;;;;5087629;28;20665;-71
2021/12/11 11:23:45;;;;;;;6.20;4.10;;;;;;;;;;5088778;28;20213;-68
2021/12/11 11:26:13;;;;;;;10.03;4.53;;;;;;;;;;5088756;28;20757;-69
2021/12/11 11:28:40;;;;;;;4.37;3.93;;;;;;;;;;5088459;28;20846;-68
2021/12/11 11:31:09;;;;;;;4.47;3.60;;;;;;;;;;5083917;28;20233;-68
2021/12/11 11:33:37;;;;;;;6.90;4.90;;;;;;;;;;5088093;28;20234;-66
2021/12/11 11:36:07;;;;;;;8.13;4.63;;;;;;;;;;5076636;28;20214;-65
2021/12/11 11:38:35;;;;;;;6.57;4.07;;;;;;;;;;5088763;28;20234;-66
2021/12/11 11:41:05;;;;;;;5.50;3.73;;;;;;;;;;5069656;28;20214;-67
2021/12/11 11:43:32;;;;;;;7.30;3.80;;;;;;;;;;5085569;28;20221;-66
2021/12/11 11:46:00;;;;;;;6.83;3.70;;;;;;;;;;5088507;28;20206;-67
2021/12/11 11:48:28;;;;;;;4.10;3.67;;;;;;;;;;5084856;28;20679;-69
2021/12/11 11:50:56;;;;;;;5.57;3.60;;;;;;;;;;5088119;28;20623;-67
2021/12/11 11:53:25;;;;;;;6.50;4.53;;;;;;;;;;5071205;28;20280;-63
2021/12/11 11:55:56;;;;;;;7.50;3.70;;;;;;;;;;5068169;28;20246;-73
2021/12/11 11:58:27;;;;;;;3.77;3.40;;;;;;;;;;5069047;28;20230;-68
2021/12/11 12:00:57;;;;;;;4.10;3.40;;;;;;;;;;5087884;28;20214;-65
2021/12/11 12:03:28;;;;;;;4.33;3.37;;;;;;;;;;5085969;28;20358;-66
2021/12/11 12:05:56;;;;;;;6.70;3.17;;;;;;;;;;5085404;28;20217;-67
2021/12/11 12:08:23;;;;;;;3.70;2.70;;;;;;;;;;5087747;28;20673;-66
2021/12/11 12:10:51;;;;;;;4.23;3.13;;;;;;;;;;5087278;28;20206;-67
2021/12/11 12:13:20;;;;;;;4.10;3.37;;;;;;;;;;5087939;28;20210;-67
2021/12/11 12:15:50;;;;;;;5.57;3.67;;;;;;;;;;5088518;28;20218;-66
2021/12/11 12:18:17;;;;;;;12.10;4.33;;;;;;;;;;5077840;28;20946;-68
2021/12/11 12:20:45;;;;;;;7.20;4.10;;;;;;;;;;5088027;28;20573;-66
2021/12/11 12:23:13;;;;;;;7.50;4.23;;;;;;;;;;5087929;28;20218;-67
2021/12/11 12:25:41;;;;;;;7.33;4.03;;;;;;;;;;5088099;28;20209;-66
2021/12/11 12:28:08;;;;;;;5.67;3.77;;;;;;;;;;5087997;28;20214;-69
2021/12/11 12:30:38;;;;;;;4.83;3.20;;;;;;;;;;5086072;28;20233;-72
2021/12/11 12:33:07;;;;;;;4.23;2.80;;;;;;;;;;5080338;28;20527;-69
2021/12/11 12:35:34;;;;;;;6.03;3.80;;;;;;;;;;5070061;28;20301;-68
2021/12/11 12:38:01;;;;;;;6.63;4.17;;;;;;;;;;5087994;28;20231;-67
2021/12/11 12:40:31;;;;;;;6.60;3.70;;;;;;;;;;5088346;28;20585;-68
2021/12/11 12:43:06;;;;;;;7.07;4.10;;;;;;;;;;5088064;28;20201;-67
2021/12/11 12:45:35;;;;;;;4.13;3.60;;;;;;;;;;5087515;28;20705;-68
2021/12/11 12:48:05;;;;;;;6.30;3.63;;;;;;;;;;5086878;28;20271;-69
2021/12/11 12:50:35;;;;;;;6.27;3.87;;;;;;;;;;5074397;28;20219;-68
2021/12/11 12:53:02;;;;;;;6.47;3.60;;;;;;;;;;5086029;28;20213;-66
2021/12/11 12:55:32;;;;;;;6.00;3.53;;;;;;;;;;5086078;28;20213;-68
2021/12/11 12:58:01;;;;;;;7.77;4.00;;;;;;;;;;5085824;28;20234;-68
2021/12/11 13:00:29;;;;;;;7.00;3.83;;;;;;;;;;5084014;28;20217;-69
2021/12/11 13:02:58;;;;;;;5.27;3.40;;;;;;;;;;5084718;28;20253;-67
2021/12/11 13:05:27;;;;;;;5.50;3.97;;;;;;;;;;5085454;28;20702;-68
2021/12/11 13:07:57;;;;;;;6.37;3.67;;;;;;;;;;5084037;28;20194;-70
2021/12/11 13:10:27;;;;;;;4.70;3.70;;;;;;;;;;5085686;28;20248;-68
2021/12/11 13:12:55;;;;;;;10.27;3.77;;;;;;;;;;5085669;28;20236;-70
2021/12/11 13:15:24;;;;;;;6.67;3.20;;;;;;;;;;5084848;28;20218;-70
2021/12/11 13:17:52;;;;;;;5.10;4.07;;;;;;;;;;5085061;28;20537;-67
2021/12/11 13:20:22;;;;;;;5.57;3.67;;;;;;;;;;5082897;28;20220;-68
2021/12/11 13:22:50;;;;;;;8.03;3.87;;;;;;;;;;5064839;28;20574;-68
2021/12/11 13:25:20;;;;;;;5.57;4.07;;;;;;;;;;5082357;28;20271;-67
2021/12/11 13:27:50;;;;;;;5.57;2.90;;;;;;;;;;5081275;28;20692;-69
2021/12/11 13:30:18;;;;;;;5.33;3.47;;;;;;;;;;5083271;28;20245;-70
2021/12/11 13:32:47;;;;;;;5.87;3.23;;;;;;;;;;5081118;28;20233;-68
2021/12/11 13:35:16;;;;;;;5.13;3.97;;;;;;;;;;5084845;28;20255;-67
2021/12/11 13:37:43;;;;;;;4.90;3.63;;;;;;;;;;5080023;28;20230;-66
2021/12/11 13:40:11;;;;;;;6.43;3.60;;;;;;;;;;5084668;28;20210;-70
2021/12/11 13:42:40;;;;;;;4.33;3.27;;;;;;;;;;5084046;28;20214;-66
2021/12/11 13:45:11;;;;;;;3.70;3.30;;;;;;;;;;5084885;28;20761;-66
2021/12/11 13:47:39;;;;;;;6.20;3.60;;;;;;;;;;5084624;28;20866;-74
2021/12/11 13:50:08;;;;;;;3.83;2.87;;;;;;;;;;5084600;28;20206;-69
2021/12/11 13:52:35;;;;;;;4.40;2.80;;;;;;;;;;5075533;28;20210;-66
2021/12/11 13:55:04;;;;;;;5.23;3.20;;;;;;;;;;5084527;28;20217;-65
2021/12/11 13:57:31;;;;;;;3.40;3.10;;;;;;;;;;5084286;28;20731;-68
2021/12/11 14:00:02;;;;;;;4.13;3.03;;;;;;;;;;5084510;28;20206;-66
2021/12/11 14:02:30;;;;;;;8.93;3.50;;;;;;;;;;5075284;28;20753;-69
2021/12/11 14:04:57;;;;;;;4.63;3.13;;;;;;;;;;5084364;28;20653;-70
2021/12/11 14:07:28;;;;;;;6.00;3.93;;;;;;;;;;5082792;28;20213;-68
2021/12/11 14:09:57;;;;;;;4.03;3.13;;;;;;;;;;5083921;28;20582;-67
2021/12/11 14:12:25;;;;;;;6.80;4.00;;;;;;;;;;5084209;28;20390;-67
2021/12/11 14:14:54;;;;;;;7.27;4.43;;;;;;;;;;5082891;28;20207;-68
2021/12/11 14:17:23;;;;;;;6.30;4.20;;;;;;;;;;5083885;28;20618;-65
2021/12/11 14:19:50;;;;;;;6.17;4.20;;;;;;;;;;5078458;28;20207;-64
2021/12/11 14:22:19;;;;;;;6.10;4.33;;;;;;;;;;5077824;28;20214;-65
2021/12/11 14:24:46;;;;;;;8.40;4.17;;;;;;;;;;5083810;28;20213;-66
2021/12/11 14:27:14;;;;;;;3.63;2.97;;;;;;;;;;5080097;28;20210;-65
2021/12/11 14:29:45;;;;;;;8.47;3.50;;;;;;;;;;5083003;28;20254;-67
2021/12/11 14:32:13;;;;;;;5.97;3.33;;;;;;;;;;5083228;28;20739;-72
2021/12/11 14:34:42;;;;;;;5.00;3.20;;;;;;;;;;5084079;28;20245;-66
2021/12/11 14:37:09;;;;;;;4.47;3.13;;;;;;;;;;5083654;28;20214;-67
2021/12/11 14:39:36;;;;;;;7.20;3.50;;;;;;;;;;5084001;28;20226;-68
2021/12/11 14:42:04;;;;;;;5.20;2.93;;;;;;;;;;5083534;28;20210;-69
2021/12/11 14:44:33;;;;;;;5.17;3.10;;;;;;;;;;5083674;28;20555;-68
2021/12/11 14:47:01;;;;;;;5.53;2.67;;;;;;;;;;5083703;28;20691;-65
2021/12/11 14:49:29;;;;;;;4.20;3.30;;;;;;;;;;5083611;28;20210;-67
2021/12/11 14:51:58;;;;;;;5.20;2.77;;;;;;;;;;5083705;28;20635;-73
2021/12/11 14:54:25;;;;;;;6.57;2.90;;;;;;;;;;5083614;28;20218;-66
2021/12/11 14:56:53;;;;;;;3.50;2.73;;;;;;;;;;5083211;28;20218;-67